Time;durP1;ratioP1;P1;durP2;ratioP2;P2;SDS_P1;SDS_P2;PMS_P1;PMS_P2;Temp;Humidity;BMP_temperature;BMP_pressure;BME280_temperature;BME280_humidity;BME280_pressure;Samples;Min_cycle;Max_cycle;Signal;HPM_P1;HPM_P2
2021/09/20 09:01:03;;;;;;;5.07;2.83;;;17.30;99.90;;;;;;4608150;23;20254;-77
2021/09/20 09:03:31;;;;;;;7.07;3.30;;;17.40;99.90;;;;;;4975147;28;20214;-73
2021/09/20 09:05:59;;;;;;;5.17;3.10;;;17.60;99.90;;;;;;4975883;28;20211;-73
2021/09/20 09:08:33;;;;;;;5.47;3.20;;;17.80;99.90;;;;;;4974697;28;20223;-77
2021/09/20 09:11:03;;;;;;;7.80;3.30;;;17.70;99.90;;;;;;4975838;28;20211;-75
2021/09/20 09:13:35;;;;;;;4.53;3.00;;;17.60;99.90;;;;;;4975808;28;20217;-75
2021/09/20 09:16:15;;;;;;;4.63;3.03;;;17.30;99.90;;;;;;4975603;28;20277;-75
2021/09/20 09:19:06;;;;;;;5.23;3.43;;;16.90;99.90;;;;;;4975472;28;20302;-74
2021/09/20 09:21:35;;;;;;;4.80;2.70;;;16.60;99.90;;;;;;4975055;28;20306;-75
2021/09/20 09:24:04;;;;;;;5.37;3.17;;;16.70;99.90;;;;;;4975196;28;20217;-74
2021/09/20 09:26:31;;;;;;;6.07;3.03;;;17.00;99.90;;;;;;4975449;28;20298;-75
2021/09/20 09:29:08;;;;;;;6.87;3.37;;;17.30;99.90;;;;;;4974522;28;20227;-74
2021/09/20 09:31:38;;;;;;;4.57;2.60;;;17.70;99.90;;;;;;4975291;28;20205;-75
2021/09/20 09:34:16;;;;;;;6.30;3.30;;;17.70;99.90;;;;;;4975566;28;20577;-74
2021/09/20 09:36:43;;;;;;;4.90;2.93;;;17.90;99.90;;;;;;4974757;28;20277;-75
2021/09/20 09:39:10;;;;;;;4.67;3.03;;;18.00;99.90;;;;;;4974884;28;20234;-73
2021/09/20 09:41:39;;;;;;;5.50;3.10;;;18.10;99.90;;;;;;4973675;28;20302;-75
2021/09/20 09:44:08;;;;;;;5.70;2.90;;;18.20;99.90;;;;;;4974470;28;20242;-74
2021/09/20 09:46:39;;;;;;;5.30;2.83;;;18.50;99.90;;;;;;4974526;28;20215;-75
2021/09/20 09:49:14;;;;;;;6.20;3.47;;;18.70;99.90;;;;;;4974660;28;20729;-77
2021/09/20 09:51:54;;;;;;;4.73;3.00;;;18.70;99.90;;;;;;4974531;28;20216;-75
2021/09/20 09:54:27;;;;;;;6.82;3.20;;;19.00;99.90;;;;;;4975337;28;20672;-74
2021/09/20 09:57:12;;;;;;;4.05;2.58;;;18.80;99.90;;;;;;4974849;28;20234;-74
2021/09/20 09:59:40;;;;;;;4.53;2.70;;;18.80;99.90;;;;;;4974637;28;20215;-76
2021/09/20 10:02:18;;;;;;;5.13;2.80;;;19.00;99.90;;;;;;4974677;28;20215;-73
2021/09/20 10:04:56;;;;;;;4.40;2.43;;;19.00;99.90;;;;;;4975103;28;20277;-74
2021/09/20 10:07:26;;;;;;;5.50;2.43;;;19.30;99.90;;;;;;4974464;28;20696;-75
2021/09/20 10:09:54;;;;;;;5.00;2.83;;;18.90;99.90;;;;;;4974568;28;20534;-76
2021/09/20 10:12:24;;;;;;;4.40;2.90;;;18.60;99.90;;;;;;4974779;28;20207;-73
2021/09/20 10:14:52;;;;;;;5.33;3.07;;;18.30;99.90;;;;;;4973860;28;20215;-75
2021/09/20 10:17:22;;;;;;;4.87;3.13;;;18.30;99.90;;;;;;4974172;28;20223;-72
2021/09/20 10:19:49;;;;;;;5.47;2.97;;;18.20;99.90;;;;;;4976027;28;20229;-71
2021/09/20 10:22:17;;;;;;;5.07;3.30;;;18.20;99.90;;;;;;4975940;28;20203;-72
2021/09/20 10:24:45;;;;;;;7.70;3.27;;;18.50;99.90;;;;;;4975916;28;20210;-72
2021/09/20 10:27:13;;;;;;;5.33;3.00;;;18.50;99.90;;;;;;4975951;28;20232;-71
2021/09/20 10:29:40;;;;;;;5.60;3.10;;;18.50;99.90;;;;;;4975809;28;20203;-72
2021/09/20 10:32:08;;;;;;;6.57;2.87;;;18.50;99.90;;;;;;4975896;28;20207;-72
2021/09/20 10:34:36;;;;;;;5.13;3.10;;;18.20;99.90;;;;;;4975746;28;20214;-71
2021/09/20 10:37:06;;;;;;;3.80;2.60;;;18.30;99.90;;;;;;4975408;28;20246;-71
2021/09/20 10:39:45;;;;;;;6.87;2.97;;;18.40;99.90;;;;;;4975514;28;20203;-72
2021/09/20 10:42:12;;;;;;;5.97;3.10;;;18.30;99.90;;;;;;4975204;28;20206;-72
2021/09/20 10:44:39;;;;;;;7.37;3.60;;;18.30;99.90;;;;;;4975261;28;20207;-71
2021/09/20 10:47:14;;;;;;;7.87;3.50;;;18.50;99.90;;;;;;4975179;28;20207;-72
2021/09/20 10:49:49;;;;;;;5.47;3.10;;;18.80;99.90;;;;;;4975227;28;20203;-72
2021/09/20 10:52:16;;;;;;;5.23;3.10;;;19.00;99.90;;;;;;4974718;28;20629;-72
2021/09/20 10:55:02;;;;;;;4.93;3.33;;;19.10;99.90;;;;;;4975009;28;20203;-72
2021/09/20 10:57:29;;;;;;;7.40;2.97;;;19.00;99.90;;;;;;4975338;28;20235;-72
2021/09/20 11:00:26;;;;;;;6.73;3.30;;;19.10;99.90;;;;;;4975274;28;20592;-71
2021/09/20 11:02:53;;;;;;;5.87;2.80;;;19.00;99.90;;;;;;4972423;28;20215;-72
2021/09/20 11:05:26;;;;;;;3.90;2.53;;;19.10;99.90;;;;;;4974775;28;20203;-71
2021/09/20 11:07:54;;;;;;;4.87;2.50;;;19.10;99.90;;;;;;4974974;28;20728;-71
2021/09/20 11:10:30;;;;;;;5.10;2.53;;;18.80;99.90;;;;;;4970829;28;20217;-73
2021/09/20 11:13:02;;;;;;;5.23;2.60;;;18.70;99.90;;;;;;4974011;28;20210;-72
2021/09/20 11:15:39;;;;;;;4.10;2.60;;;18.90;99.90;;;;;;4973687;28;20227;-75
2021/09/20 11:18:06;;;;;;;4.57;2.60;;;18.80;99.90;;;;;;4973663;28;20237;-72
2021/09/20 11:20:40;;;;;;;4.87;2.87;;;18.70;99.90;;;;;;4973527;28;20203;-73
2021/09/20 11:23:28;;;;;;;6.30;3.27;;;18.60;99.90;;;;;;4973820;28;20306;-75
2021/09/20 11:26:16;;;;;;;6.30;3.03;;;18.30;99.90;;;;;;4973896;28;20222;-73
2021/09/20 11:28:47;;;;;;;5.53;2.70;;;18.30;99.90;;;;;;4974647;28;20231;-75
2021/09/20 11:31:14;;;;;;;5.67;3.10;;;18.30;99.90;;;;;;4973374;28;20681;-71
2021/09/20 11:33:42;;;;;;;7.70;3.67;;;18.60;99.90;;;;;;4972633;28;20213;-73
2021/09/20 11:36:25;;;;;;;6.90;3.20;;;19.00;99.90;;;;;;4973351;28;20234;-74
2021/09/20 11:39:14;;;;;;;4.63;2.93;;;19.20;99.90;;;;;;4972800;28;20223;-74
2021/09/20 11:41:44;;;;;;;6.27;2.87;;;19.00;99.90;;;;;;4972960;28;20203;-71
2021/09/20 11:44:14;;;;;;;6.47;2.90;;;18.70;99.90;;;;;;4974748;28;20250;-73
2021/09/20 11:46:42;;;;;;;4.87;2.70;;;18.80;99.90;;;;;;4974056;28;20211;-72
2021/09/20 11:49:12;;;;;;;5.43;2.83;;;19.00;99.90;;;;;;4974320;28;20234;-76
2021/09/20 11:51:40;;;;;;;6.23;3.07;;;19.00;99.90;;;;;;4974602;28;20207;-74
2021/09/20 11:54:07;;;;;;;5.30;3.07;;;18.90;99.90;;;;;;4974338;28;20207;-75
2021/09/20 11:56:34;;;;;;;5.83;3.00;;;18.90;99.90;;;;;;4974172;28;20252;-76
2021/09/20 11:59:02;;;;;;;5.93;2.97;;;18.80;99.90;;;;;;4974230;28;20234;-75
2021/09/20 12:01:29;;;;;;;5.20;2.80;;;18.90;99.90;;;;;;4973897;28;20598;-73
2021/09/20 12:03:58;;;;;;;4.87;2.93;;;19.10;99.90;;;;;;4973645;28;20222;-72
2021/09/20 12:06:30;;;;;;;4.43;2.70;;;19.30;99.90;;;;;;4974161;28;20209;-73
2021/09/20 12:09:01;;;;;;;4.27;2.77;;;19.30;99.90;;;;;;4973924;28;20602;-77
2021/09/20 12:11:28;;;;;;;5.73;2.67;;;19.30;99.90;;;;;;4974000;28;20333;-71
2021/09/20 12:13:56;;;;;;;5.67;2.93;;;19.30;99.90;;;;;;4973756;28;20223;-76
2021/09/20 12:16:25;;;;;;;5.17;2.80;;;19.50;99.90;;;;;;4973667;28;20260;-72
2021/09/20 12:18:52;;;;;;;6.17;3.10;;;19.80;99.90;;;;;;4973801;28;20736;-76
2021/09/20 12:21:19;;;;;;;5.30;2.53;;;19.60;99.90;;;;;;4973980;28;20685;-73
2021/09/20 12:23:49;;;;;;;5.40;3.15;;;19.70;99.90;;;;;;4973727;28;20215;-77
2021/09/20 12:26:19;;;;;;;4.93;2.60;;;19.90;99.90;;;;;;4973346;28;20712;-72
2021/09/20 12:28:53;;;;;;;5.18;2.80;;;20.10;99.90;;;;;;4973482;28;20227;-77
2021/09/20 12:31:22;;;;;;;5.32;2.90;;;20.20;99.90;;;;;;4973488;28;20630;-76
2021/09/20 12:33:55;;;;;;;5.47;3.13;;;20.00;99.90;;;;;;4970112;28;20574;-77
2021/09/20 12:36:25;;;;;;;4.95;3.17;;;20.00;99.90;;;;;;4972194;28;20235;-76
2021/09/20 12:38:59;;;;;;;6.28;3.20;;;20.30;99.90;;;;;;4972294;28;20710;-76
2021/09/20 12:41:32;;;;;;;6.00;3.78;;;20.50;99.90;;;;;;4972398;28;20204;-74
2021/09/20 12:43:59;;;;;;;6.38;3.15;;;20.70;99.90;;;;;;4972779;28;20211;-74
2021/09/20 12:46:28;;;;;;;5.50;2.97;;;20.80;99.90;;;;;;4971812;28;20218;-76
2021/09/20 12:48:56;;;;;;;4.95;3.13;;;20.70;99.90;;;;;;4972170;28;20322;-77
2021/09/20 12:51:24;;;;;;;6.40;3.58;;;20.30;99.90;;;;;;4972308;28;20561;-74
2021/09/20 12:53:53;;;;;;;6.03;3.55;;;20.20;99.90;;;;;;4972063;28;20265;-77
2021/09/20 12:56:31;;;;;;;5.45;3.28;;;20.20;99.90;;;;;;4972435;28;20311;-74
2021/09/20 12:59:15;;;;;;;5.30;3.05;;;20.30;99.90;;;;;;4972247;28;20727;-78
2021/09/20 13:01:51;;;;;;;5.85;3.60;;;20.10;99.90;;;;;;4973341;28;20310;-74
2021/09/20 13:04:33;;;;;;;7.03;3.55;;;19.70;99.90;;;;;;4973353;28;20561;-75
2021/09/20 13:07:02;;;;;;;5.50;2.95;;;19.50;99.90;;;;;;4973336;28;20207;-75
2021/09/20 13:09:29;;;;;;;5.63;2.97;;;19.70;99.90;;;;;;4973485;28;20208;-76
2021/09/20 13:12:09;;;;;;;5.72;3.00;;;19.70;99.90;;;;;;4973461;28;20207;-75
2021/09/20 13:14:49;;;;;;;5.88;3.25;;;19.60;99.90;;;;;;4973977;28;20211;-76
2021/09/20 13:17:17;;;;;;;6.15;3.50;;;19.70;99.90;;;;;;4972855;28;20301;-73
2021/09/20 13:19:59;;;;;;;6.57;3.40;;;19.70;99.90;;;;;;4975336;28;20215;-74
2021/09/20 13:22:26;;;;;;;8.57;3.90;;;20.00;99.90;;;;;;4975625;28;20692;-74
2021/09/20 13:24:53;;;;;;;7.68;3.88;;;19.80;99.90;;;;;;4974998;28;20602;-73
2021/09/20 13:27:21;;;;;;;5.37;3.30;;;19.60;99.90;;;;;;4975664;28;20229;-73
2021/09/20 13:29:48;;;;;;;6.00;3.42;;;19.50;99.90;;;;;;4975284;28;20214;-73
2021/09/20 13:32:16;;;;;;;6.73;3.47;;;19.50;99.90;;;;;;4974972;28;20301;-75
2021/09/20 13:34:44;;;;;;;5.77;3.13;;;19.40;99.90;;;;;;4975835;28;20203;-77
2021/09/20 13:37:12;;;;;;;5.63;3.23;;;19.40;99.90;;;;;;4975092;28;20235;-73
2021/09/20 13:39:38;;;;;;;8.17;3.70;;;19.10;99.90;;;;;;4974281;28;20221;-75
2021/09/20 13:42:05;;;;;;;7.77;3.80;;;19.00;99.90;;;;;;4975442;28;20298;-74
2021/09/20 13:44:33;;;;;;;8.57;3.30;;;19.10;99.90;;;;;;4974696;28;20676;-76
2021/09/20 13:47:00;;;;;;;8.07;3.77;;;19.30;99.90;;;;;;4974167;28;20203;-75
2021/09/20 13:49:27;;;;;;;8.30;3.97;;;19.30;99.90;;;;;;4975394;28;20302;-74
2021/09/20 13:51:54;;;;;;;6.60;3.77;;;19.40;99.90;;;;;;4975441;28;20207;-74
2021/09/20 13:54:21;;;;;;;7.43;3.40;;;19.40;99.90;;;;;;4974417;28;20204;-75
2021/09/20 13:56:47;;;;;;;5.50;3.13;;;19.40;99.90;;;;;;4975090;28;20325;-75
2021/09/20 13:59:14;;;;;;;7.37;3.67;;;19.20;99.90;;;;;;4975402;28;20578;-75
2021/09/20 14:01:42;;;;;;;8.57;3.60;;;19.20;99.90;;;;;;4974335;28;20310;-74
2021/09/20 14:04:09;;;;;;;7.47;3.23;;;19.30;99.90;;;;;;4974922;28;20203;-75
2021/09/20 14:06:36;;;;;;;6.07;3.23;;;19.50;99.90;;;;;;4974803;28;20753;-76
2021/09/20 14:09:03;;;;;;;5.60;2.87;;;19.60;99.90;;;;;;4974672;28;20550;-74
2021/09/20 14:11:30;;;;;;;6.63;3.67;;;19.40;99.90;;;;;;4977410;28;20210;-75
2021/09/20 14:13:57;;;;;;;7.00;3.80;;;19.20;99.90;;;;;;4985376;28;20218;-72
2021/09/20 14:16:23;;;;;;;9.27;4.37;;;19.00;99.90;;;;;;4974135;28;20229;-73
2021/09/20 14:18:52;;;;;;;8.30;4.73;;;18.90;99.90;;;;;;4974459;28;20265;-73
2021/09/20 14:21:19;;;;;;;8.93;4.13;;;18.90;99.90;;;;;;4974931;28;20217;-75
2021/09/20 14:23:45;;;;;;;7.70;3.90;;;19.10;99.90;;;;;;4969396;28;20294;-73
2021/09/20 14:26:12;;;;;;;9.23;4.87;;;19.20;99.90;;;;;;4973499;28;20207;-72
2021/09/20 14:28:45;;;;;;;9.37;4.77;;;19.00;99.90;;;;;;4973539;28;20231;-73
2021/09/20 14:31:12;;;;;;;8.77;4.70;;;18.90;99.90;;;;;;4973761;28;20557;-72
2021/09/20 14:33:39;;;;;;;11.07;5.07;;;18.90;99.90;;;;;;4974443;28;20212;-72
2021/09/20 14:36:07;;;;;;;8.60;4.83;;;19.00;99.90;;;;;;4974400;28;20203;-72
2021/09/20 14:38:34;;;;;;;8.90;5.10;;;19.10;99.90;;;;;;4973160;28;20238;-72
2021/09/20 14:41:01;;;;;;;8.17;4.60;;;19.30;99.90;;;;;;4973714;28;20214;-72
2021/09/20 14:43:28;;;;;;;10.30;5.33;;;19.40;99.90;;;;;;4974230;28;20207;-74
2021/09/20 14:45:55;;;;;;;9.67;5.07;;;18.90;99.90;;;;;;4973329;28;20211;-73
2021/09/20 14:48:22;;;;;;;9.87;5.03;;;18.80;99.90;;;;;;4973608;28;20267;-72
2021/09/20 14:50:48;;;;;;;8.17;5.07;;;18.90;99.90;;;;;;4975226;28;20207;-72
2021/09/20 14:53:16;;;;;;;10.03;5.63;;;18.80;99.90;;;;;;4974754;28;20218;-72
2021/09/20 14:55:43;;;;;;;7.73;4.67;;;18.90;99.90;;;;;;4974980;28;20214;-72
2021/09/20 14:58:10;;;;;;;7.53;4.63;;;18.70;99.90;;;;;;4974929;28;20238;-71
2021/09/20 15:00:37;;;;;;;8.93;4.80;;;18.80;99.90;;;;;;4974737;28;20214;-72
2021/09/20 15:03:04;;;;;;;9.77;4.80;;;18.90;99.90;;;;;;4974569;28;20219;-72
2021/09/20 15:05:31;;;;;;;7.60;4.50;;;19.00;99.90;;;;;;4974396;28;20581;-72
2021/09/20 15:07:57;;;;;;;8.73;4.63;;;19.10;99.90;;;;;;4974424;28;20396;-73
2021/09/20 15:10:25;;;;;;;8.13;4.50;;;18.80;99.90;;;;;;4974429;28;20209;-73
2021/09/20 15:12:52;;;;;;;7.30;4.20;;;18.70;99.90;;;;;;4973825;28;20523;-73
2021/09/20 15:15:19;;;;;;;7.80;4.40;;;18.70;99.90;;;;;;4973547;28;20218;-72
2021/09/20 15:17:48;;;;;;;7.93;4.30;;;18.70;99.90;;;;;;4974009;28;20239;-73
2021/09/20 15:20:16;;;;;;;8.87;5.17;;;18.70;99.90;;;;;;4954974;29;20204;-72
2021/09/20 15:22:43;;;;;;;11.00;5.17;;;18.90;99.90;;;;;;4967347;28;20217;-73
2021/09/20 15:25:12;;;;;;;10.23;5.20;;;19.30;99.90;;;;;;4973915;28;20307;-72
2021/09/20 15:27:43;;;;;;;10.73;4.90;;;19.40;99.90;;;;;;4973867;28;20231;-72
2021/09/20 15:30:12;;;;;;;8.97;5.30;;;19.40;99.90;;;;;;4974357;28;20211;-71
2021/09/20 15:32:40;;;;;;;9.30;5.23;;;19.20;99.90;;;;;;4973994;28;20617;-72
2021/09/20 15:35:09;;;;;;;9.10;5.33;;;19.10;99.90;;;;;;4973570;28;20218;-72
2021/09/20 15:37:36;;;;;;;8.10;5.57;;;18.80;99.90;;;;;;4973925;28;20310;-72
2021/09/20 15:40:06;;;;;;;6.90;4.80;;;18.70;99.90;;;;;;4973297;28;20218;-72
2021/09/20 15:42:35;;;;;;;8.43;5.00;;;18.70;99.90;;;;;;4973868;28;20218;-72
2021/09/20 15:45:04;;;;;;;6.97;5.27;;;18.80;99.90;;;;;;4973915;28;20207;-73
2021/09/20 15:47:31;;;;;;;8.90;6.10;;;19.00;99.90;;;;;;4973368;28;20234;-72
2021/09/20 15:49:57;;;;;;;9.33;6.20;;;18.70;99.90;;;;;;4973414;28;20203;-72
2021/09/20 15:52:25;;;;;;;9.87;6.10;;;18.50;99.90;;;;;;4973933;28;20207;-72
2021/09/20 15:54:51;;;;;;;10.97;6.90;;;18.60;99.90;;;;;;4973305;28;20219;-72
2021/09/20 15:57:20;;;;;;;9.37;6.50;;;18.50;99.90;;;;;;4973389;28;20250;-72
2021/09/20 15:59:47;;;;;;;10.33;7.53;;;18.20;99.90;;;;;;4973826;28;20666;-72
2021/09/20 16:02:15;;;;;;;9.63;6.50;;;18.00;99.90;;;;;;4973456;28;20230;-71
2021/09/20 16:04:42;;;;;;;9.67;6.50;;;17.90;99.90;;;;;;4972985;28;20725;-72
2021/09/20 16:07:09;;;;;;;10.20;6.87;;;17.90;99.90;;;;;;4972960;28;20752;-71
2021/09/20 16:09:37;;;;;;;9.40;6.47;;;18.10;99.90;;;;;;4973437;28;20204;-71
2021/09/20 16:12:04;;;;;;;9.53;6.50;;;18.40;99.90;;;;;;4973374;28;20207;-71
2021/09/20 16:14:31;;;;;;;8.83;6.13;;;18.50;99.90;;;;;;4972479;28;20685;-72
2021/09/20 16:16:57;;;;;;;8.33;5.67;;;18.60;99.90;;;;;;4972026;28;20697;-72
2021/09/20 16:19:25;;;;;;;7.37;5.67;;;18.50;99.90;;;;;;4973218;28;20650;-71
2021/09/20 16:21:52;;;;;;;6.87;5.00;;;18.50;99.90;;;;;;4973440;28;20203;-72
2021/09/20 16:24:19;;;;;;;6.23;4.43;;;18.60;99.90;;;;;;4973291;28;20203;-71
2021/09/20 16:26:46;;;;;;;7.40;5.50;;;18.50;99.90;;;;;;4972822;28;20648;-72
2021/09/20 16:29:13;;;;;;;7.50;5.20;;;18.30;99.90;;;;;;4973259;28;20227;-71
2021/09/20 16:31:39;;;;;;;8.43;5.40;;;18.20;99.90;;;;;;4973250;28;20291;-72
2021/09/20 16:34:06;;;;;;;7.93;5.67;;;18.10;99.90;;;;;;4973026;28;20234;-72
2021/09/20 16:36:35;;;;;;;6.83;5.23;;;18.10;99.90;;;;;;4972996;28;20685;-72
2021/09/20 16:39:03;;;;;;;7.43;5.10;;;18.00;99.90;;;;;;4973189;28;20245;-71
2021/09/20 16:41:30;;;;;;;6.47;5.13;;;17.90;99.90;;;;;;4973238;28;20207;-72
2021/09/20 16:43:57;;;;;;;7.30;5.40;;;17.80;99.90;;;;;;4972486;28;20207;-73
2021/09/20 16:46:23;;;;;;;8.60;5.47;;;17.60;99.90;;;;;;4972959;28;20217;-72
2021/09/20 16:48:50;;;;;;;8.40;6.17;;;17.40;99.90;;;;;;4972937;28;20230;-72
2021/09/20 16:51:18;;;;;;;8.17;5.73;;;17.40;99.90;;;;;;4975609;28;20203;-72
2021/09/20 16:53:47;;;;;;;7.57;5.50;;;17.40;99.90;;;;;;4976667;28;20207;-72
2021/09/20 16:56:14;;;;;;;7.10;5.27;;;17.50;99.90;;;;;;4976722;28;20211;-72
2021/09/20 16:58:41;;;;;;;6.67;5.13;;;17.50;99.90;;;;;;4976337;28;20274;-72
2021/09/20 17:01:07;;;;;;;7.10;5.37;;;17.50;99.90;;;;;;4976195;28;20670;-72
2021/09/20 17:03:35;;;;;;;6.47;5.13;;;17.40;99.90;;;;;;4975900;28;20230;-72
2021/09/20 17:06:01;;;;;;;6.30;4.97;;;17.60;99.90;;;;;;4976411;28;20207;-72
2021/09/20 17:08:29;;;;;;;9.07;5.17;;;17.50;99.90;;;;;;4976612;28;20223;-71
2021/09/20 17:10:57;;;;;;;8.37;5.20;;;17.50;99.90;;;;;;4976120;28;20211;-72
2021/09/20 17:13:25;;;;;;;7.93;5.50;;;17.40;99.90;;;;;;4976318;28;20211;-72
2021/09/20 17:15:52;;;;;;;6.20;4.80;;;17.20;99.90;;;;;;4975792;28;20214;-72
2021/09/20 17:18:19;;;;;;;6.00;4.80;;;17.10;99.90;;;;;;4976295;28;20227;-72
2021/09/20 17:20:46;;;;;;;6.50;4.73;;;17.00;99.90;;;;;;4976374;28;20207;-72
2021/09/20 17:23:13;;;;;;;5.60;4.47;;;17.10;99.90;;;;;;4976030;28;20572;-72
2021/09/20 17:25:42;;;;;;;6.30;4.60;;;17.10;99.90;;;;;;4976545;28;20208;-72
2021/09/20 17:28:11;;;;;;;5.87;4.23;;;17.10;99.90;;;;;;4976128;28;20602;-72
2021/09/20 17:30:39;;;;;;;6.33;4.57;;;17.10;99.90;;;;;;4976035;28;20266;-72
2021/09/20 17:33:07;;;;;;;5.60;4.13;;;16.90;99.90;;;;;;4976069;28;20237;-71
2021/09/20 17:35:35;;;;;;;4.23;3.50;;;16.80;99.90;;;;;;4976070;28;20211;-71
2021/09/20 17:38:05;;;;;;;5.90;4.23;;;16.90;99.90;;;;;;4975622;28;20270;-72
2021/09/20 17:40:34;;;;;;;6.03;3.87;;;17.00;99.90;;;;;;4975504;28;20682;-72
2021/09/20 17:43:01;;;;;;;6.53;4.40;;;16.90;99.90;;;;;;4976039;28;20219;-73
2021/09/20 17:45:29;;;;;;;5.53;3.93;;;16.80;99.90;;;;;;4976074;28;20211;-71
2021/09/20 17:47:56;;;;;;;7.27;3.63;;;16.70;99.90;;;;;;4975497;28;20223;-72
2021/09/20 17:50:23;;;;;;;6.93;4.00;;;16.60;99.90;;;;;;4975976;28;20222;-72
2021/09/20 17:52:50;;;;;;;5.13;3.77;;;16.40;99.90;;;;;;4975775;28;20207;-71
2021/09/20 17:55:17;;;;;;;5.10;3.83;;;16.30;99.90;;;;;;4975506;28;20655;-72
2021/09/20 17:57:44;;;;;;;4.60;3.60;;;16.30;99.90;;;;;;4975464;28;20231;-72
2021/09/20 18:00:14;;;;;;;5.57;3.87;;;16.40;99.90;;;;;;4975676;28;20212;-72
2021/09/20 18:02:43;;;;;;;5.13;3.57;;;16.40;99.90;;;;;;4974247;28;20250;-72
2021/09/20 18:05:11;;;;;;;5.90;4.13;;;16.60;99.90;;;;;;4974895;28;20218;-72
2021/09/20 18:07:38;;;;;;;5.03;4.10;;;16.70;99.90;;;;;;4975430;28;20286;-72
2021/09/20 18:10:07;;;;;;;5.30;3.80;;;16.80;99.90;;;;;;4975299;28;20214;-72
2021/09/20 18:12:34;;;;;;;6.67;3.70;;;16.90;99.90;;;;;;4976096;28;20210;-71
2021/09/20 18:15:01;;;;;;;5.10;3.60;;;16.90;99.90;;;;;;4980471;28;20207;-72
2021/09/20 18:17:28;;;;;;;5.77;3.70;;;16.80;99.90;;;;;;4994477;28;20226;-72
2021/09/20 18:19:56;;;;;;;5.73;4.10;;;16.80;99.90;;;;;;4977218;28;20209;-72
2021/09/20 18:22:23;;;;;;;5.57;4.00;;;16.90;99.90;;;;;;4975237;28;20203;-72
2021/09/20 18:24:56;;;;;;;7.87;4.23;;;17.00;99.90;;;;;;4975553;28;20213;-72
2021/09/20 18:27:23;;;;;;;4.23;3.37;;;17.00;99.90;;;;;;4974869;28;20238;-73
2021/09/20 18:29:50;;;;;;;5.53;3.73;;;16.80;99.90;;;;;;4974670;28;20211;-73
2021/09/20 18:32:17;;;;;;;4.97;3.60;;;16.60;99.90;;;;;;4974382;28;20207;-71
2021/09/20 18:34:43;;;;;;;6.30;3.37;;;16.40;99.90;;;;;;4974567;28;20699;-72
2021/09/20 18:37:12;;;;;;;6.27;3.80;;;16.20;99.90;;;;;;4974619;28;20235;-72
2021/09/20 18:39:38;;;;;;;6.47;3.77;;;16.30;99.90;;;;;;4974431;28;20247;-72
2021/09/20 18:42:06;;;;;;;6.77;3.87;;;16.10;99.90;;;;;;4974636;28;20574;-72
2021/09/20 18:44:33;;;;;;;5.13;3.63;;;16.10;99.90;;;;;;4974706;28;20207;-73
2021/09/20 18:47:00;;;;;;;7.00;4.17;;;16.10;99.90;;;;;;4974378;28;20211;-72
2021/09/20 18:49:27;;;;;;;6.43;4.03;;;15.90;99.90;;;;;;4974575;28;20207;-71
2021/09/20 18:51:54;;;;;;;7.53;3.80;;;16.00;99.90;;;;;;4974545;28;20207;-72
2021/09/20 18:54:22;;;;;;;6.30;3.63;;;15.80;99.90;;;;;;4974328;28;20239;-72
2021/09/20 18:56:48;;;;;;;6.77;3.57;;;15.90;99.90;;;;;;4974322;28;20722;-72
2021/09/20 18:59:15;;;;;;;4.77;3.33;;;15.90;99.90;;;;;;4974160;28;20235;-72
2021/09/20 19:01:42;;;;;;;6.03;3.37;;;15.80;99.90;;;;;;4973963;28;20218;-72
2021/09/20 19:04:09;;;;;;;4.30;3.03;;;15.70;99.90;;;;;;4974302;28;20214;-72
2021/09/20 19:06:36;;;;;;;5.40;3.43;;;15.40;99.90;;;;;;4974455;28;20211;-80
2021/09/20 19:09:04;;;;;;;5.87;3.00;;;15.40;99.90;;;;;;4975077;28;20227;-78
2021/09/20 19:11:32;;;;;;;6.20;3.17;;;15.40;99.90;;;;;;4975892;28;20215;-80
2021/09/20 19:13:59;;;;;;;4.33;2.93;;;15.40;99.90;;;;;;4975025;28;20207;-82
2021/09/20 19:16:26;;;;;;;5.10;3.43;;;15.50;99.90;;;;;;4974952;28;20207;-81
2021/09/20 19:18:54;;;;;;;5.60;2.87;;;15.40;99.90;;;;;;4975152;28;20234;-82
2021/09/20 19:21:23;;;;;;;4.87;2.90;;;15.20;99.90;;;;;;4975134;28;20249;-80
2021/09/20 19:23:51;;;;;;;4.13;2.70;;;15.10;99.90;;;;;;4975036;28;20298;-78
2021/09/20 19:26:18;;;;;;;5.90;2.80;;;15.00;99.90;;;;;;4974835;28;20214;-80
2021/09/20 19:28:46;;;;;;;4.77;2.87;;;15.10;99.90;;;;;;4974852;28;20231;-81
2021/09/20 19:31:13;;;;;;;6.23;2.73;;;15.10;99.90;;;;;;4974476;28;20199;-81
2021/09/20 19:33:40;;;;;;;4.70;2.60;;;15.10;99.90;;;;;;4974461;28;20211;-82
2021/09/20 19:36:07;;;;;;;3.90;2.47;;;15.20;99.90;;;;;;4974723;28;20207;-79
2021/09/20 19:38:34;;;;;;;3.13;2.20;;;15.10;99.90;;;;;;4974522;28;20234;-78
2021/09/20 19:41:01;;;;;;;5.37;2.50;;;15.10;99.90;;;;;;4974603;28;20217;-73
2021/09/20 19:43:28;;;;;;;5.00;2.47;;;15.00;99.90;;;;;;4974295;28;20210;-77
2021/09/20 19:45:57;;;;;;;4.83;2.43;;;14.80;99.90;;;;;;4974490;28;20211;-80
2021/09/20 19:48:24;;;;;;;2.93;1.80;;;14.90;99.90;;;;;;4974443;28;20817;-81
2021/09/20 19:50:52;;;;;;;4.87;2.60;;;14.90;99.90;;;;;;4974517;28;20211;-79
2021/09/20 19:53:18;;;;;;;3.10;2.03;;;14.90;99.90;;;;;;4974362;28;20291;-82
2021/09/20 19:55:45;;;;;;;4.33;2.20;;;14.70;99.90;;;;;;4974678;28;20210;-82
2021/09/20 19:58:12;;;;;;;3.40;2.07;;;14.70;99.90;;;;;;4974125;28;20227;-74
2021/09/20 20:00:40;;;;;;;4.97;2.23;;;14.80;99.90;;;;;;4974317;28;20579;-79
2021/09/20 20:03:09;;;;;;;2.50;1.60;;;14.90;99.90;;;;;;4974391;28;20219;-73
2021/09/20 20:05:36;;;;;;;2.53;1.67;;;14.70;99.90;;;;;;4974293;28;20215;-78
2021/09/20 20:08:05;;;;;;;2.90;1.83;;;14.70;99.90;;;;;;4974860;28;20237;-75
2021/09/20 20:10:32;;;;;;;5.03;2.00;;;14.60;99.90;;;;;;4974713;28;20217;-80
2021/09/20 20:12:59;;;;;;;2.30;1.70;;;14.60;99.90;;;;;;4974568;28;20215;-77
2021/09/20 20:15:26;;;;;;;3.70;1.70;;;14.60;99.90;;;;;;4975022;28;20261;-77
2021/09/20 20:17:54;;;;;;;3.77;1.80;;;14.60;99.90;;;;;;4976056;28;20227;-77
2021/09/20 20:20:29;;;;;;;2.73;1.77;;;14.50;99.90;;;;;;4974290;28;20293;-79
2021/09/20 20:22:57;;;;;;;2.20;1.80;;;14.40;99.90;;;;;;4974108;28;20671;-77
2021/09/20 20:25:25;;;;;;;2.50;1.73;;;14.40;99.90;;;;;;4975251;28;20752;-79
2021/09/20 20:27:52;;;;;;;2.57;1.63;;;14.40;99.90;;;;;;4978244;28;20555;-80
2021/09/20 20:30:19;;;;;;;4.83;1.73;;;14.40;99.90;;;;;;4978006;28;20211;-83
2021/09/20 20:32:46;;;;;;;2.50;1.60;;;14.50;99.90;;;;;;4978523;28;20206;-81
2021/09/20 20:35:15;;;;;;;2.70;1.50;;;14.40;99.90;;;;;;4977956;28;20616;-83
2021/09/20 20:37:43;;;;;;;1.93;1.50;;;14.30;99.90;;;;;;4977740;28;20230;-79
2021/09/20 20:40:10;;;;;;;2.50;1.50;;;14.40;99.90;;;;;;4977373;28;20235;-81
2021/09/20 20:42:38;;;;;;;3.00;1.70;;;14.30;99.90;;;;;;4977603;28;20214;-77
2021/09/20 20:45:08;;;;;;;2.00;1.43;;;14.30;99.90;;;;;;4977875;28;20211;-78
2021/09/20 20:47:35;;;;;;;1.93;1.20;;;14.30;99.90;;;;;;4977716;28;20241;-78
2021/09/20 20:50:03;;;;;;;1.77;1.40;;;14.20;99.90;;;;;;4977813;28;20211;-77
2021/09/20 20:52:32;;;;;;;2.47;1.47;;;14.20;99.90;;;;;;4977439;28;20213;-79
2021/09/20 20:55:00;;;;;;;2.47;1.60;;;14.00;99.90;;;;;;4977564;28;20207;-81
2021/09/20 20:57:27;;;;;;;2.60;1.37;;;13.90;99.90;;;;;;4977428;28;20227;-77
2021/09/20 20:59:54;;;;;;;4.23;1.70;;;13.80;99.90;;;;;;4977257;28;20702;-77
2021/09/20 21:02:20;;;;;;;2.87;1.20;;;13.80;99.90;;;;;;4977282;28;20218;-81
2021/09/20 21:04:47;;;;;;;3.43;1.77;;;13.70;99.90;;;;;;4978132;28;20207;-74
2021/09/20 21:07:14;;;;;;;3.73;1.33;;;13.80;99.90;;;;;;4976940;28;20241;-76
2021/09/20 21:09:41;;;;;;;3.13;1.60;;;13.80;99.90;;;;;;4977262;28;20218;-74
2021/09/20 21:12:09;;;;;;;2.00;1.20;;;13.70;99.90;;;;;;4977436;28;20215;-81
2021/09/20 21:14:36;;;;;;;3.37;1.70;;;13.60;99.90;;;;;;4977450;28;20218;-81
2021/09/20 21:17:03;;;;;;;2.07;1.47;;;13.80;99.90;;;;;;4977197;28;20208;-81
2021/09/20 21:19:30;;;;;;;2.67;1.20;;;13.80;99.90;;;;;;4977186;28;20235;-82
2021/09/20 21:21:57;;;;;;;2.93;1.20;;;13.70;99.90;;;;;;4978462;28;20211;-79
2021/09/20 21:24:24;;;;;;;3.23;1.43;;;13.60;99.90;;;;;;4978253;28;20207;-74
2021/09/20 21:26:51;;;;;;;1.70;1.13;;;13.70;99.90;;;;;;4976886;28;20211;-79
2021/09/20 21:29:19;;;;;;;1.60;1.23;;;13.70;99.90;;;;;;4976692;28;20634;-80
2021/09/20 21:31:46;;;;;;;1.90;1.10;;;13.70;99.90;;;;;;4976528;28;20211;-74
2021/09/20 21:34:14;;;;;;;2.17;1.33;;;13.80;99.90;;;;;;4976357;28;20234;-80
2021/09/20 21:36:40;;;;;;;5.10;1.60;;;13.90;99.90;;;;;;4976277;28;20215;-74
2021/09/20 21:39:07;;;;;;;2.17;1.20;;;13.90;99.90;;;;;;4976215;28;20239;-79
2021/09/20 21:41:34;;;;;;;2.30;1.30;;;14.00;99.90;;;;;;4976103;28;20207;-78
2021/09/20 21:44:01;;;;;;;3.63;1.33;;;13.80;99.90;;;;;;4976449;28;20208;-81
2021/09/20 21:46:30;;;;;;;2.93;1.40;;;13.90;99.90;;;;;;4976015;28;20211;-81
2021/09/20 21:48:56;;;;;;;3.80;1.57;;;13.90;99.90;;;;;;4976536;28;20242;-81
2021/09/20 21:51:23;;;;;;;3.03;1.60;;;14.00;99.90;;;;;;4976343;28;20213;-81
2021/09/20 21:53:50;;;;;;;3.80;1.47;;;14.10;99.90;;;;;;4976658;28;20211;-80